Time;durP1;ratioP1;P1;durP2;ratioP2;P2;SDS_P1;SDS_P2;PMS_P1;PMS_P2;Temp;Humidity;BMP_temperature;BMP_pressure;BME280_temperature;BME280_humidity;BME280_pressure;Samples;Min_cycle;Max_cycle;Signal;HPM_P1;HPM_P2
2023/11/02 00:00:20;;;;;;;;;;;;;;;;;;5053883;28;20472;-74
2023/11/02 00:02:47;;;;;;;;;;;;;;;;;;5053582;28;20020;-74
2023/11/02 00:05:14;;;;;;;;;;;;;;;;;;5053632;28;20016;-74
2023/11/02 00:07:41;;;;;;;;;;;;;;;;;;5051664;28;19925;-73
2023/11/02 00:10:08;;;;;;;;;;;;;;;;;;5045802;28;20410;-74
2023/11/02 00:12:35;;;;;;;;;;;;;;;;;;5054263;28;19956;-74
2023/11/02 00:15:03;;;;;;;;;;;;;;;;;;5052521;28;19959;-75
2023/11/02 00:17:29;;;;;;;;;;;;;;;;;;5052146;28;19948;-73
2023/11/02 00:19:57;;;;;;;;;;;;;;;;;;5052339;28;19931;-74
2023/11/02 00:22:24;;;;;;;;;;;;;;;;;;5054685;28;20300;-74
2023/11/02 00:24:52;;;;;;;;;;;;;;;;;;5052245;28;19968;-75
2023/11/02 00:27:19;;;;;;;;;;;;;;;;;;5054198;28;19980;-75
2023/11/02 00:29:49;;;;;;;;;;;;;;;;;;5043495;28;20019;-75
2023/11/02 00:32:17;;;;;;;;;;;;;;;;;;5053334;28;19998;-74
2023/11/02 00:34:45;;;;;;;;;;;;;;;;;;5048100;28;20410;-73
2023/11/02 00:37:12;;;;;;;;;;;;;;;;;;5054629;28;19925;-75
2023/11/02 00:39:39;;;;;;;;;;;;;;;;;;5034521;28;19925;-75
2023/11/02 00:42:06;;;;;;;;;;;;;;;;;;5050772;28;20035;-74
2023/11/02 00:44:34;;;;;;;;;;;;;;;;;;5050220;28;20484;-74
2023/11/02 00:47:03;;;;;;;;;;;;;;;;;;5052520;28;19924;-75
2023/11/02 00:49:31;;;;;;;;;;;;;;;;;;5052549;28;19929;-74
2023/11/02 00:51:58;;;;;;;;;;;;;;;;;;5052454;28;19925;-74
2023/11/02 00:54:25;;;;;;;;;;;;;;;;;;5052807;28;19929;-75
2023/11/02 00:56:52;;;;;;;;;;;;;;;;;;5053687;28;20268;-74
2023/11/02 00:59:20;;;;;;;;;;;;;;;;;;5046820;28;20019;-75
2023/11/02 01:01:47;;;;;;;;;;;;;;;;;;5053603;28;19924;-74
2023/11/02 01:04:15;;;;;;;;;;;;;;;;;;5051962;28;20260;-75
2023/11/02 01:06:42;;;;;;;;;;;;;;;;;;5053321;28;19968;-74
2023/11/02 01:09:09;;;;;;;;;;;;;;;;;;5053566;28;20319;-75
2023/11/02 01:11:36;;;;;;;;;;;;;;;;;;5052036;28;20401;-75
2023/11/02 01:14:04;;;;;;;;;;;;;;;;;;5050429;28;20059;-74
2023/11/02 01:16:31;;;;;;;;;;;;;;;;;;5049676;28;19932;-74
2023/11/02 01:18:59;;;;;;;;;;;;;;;;;;5043965;28;20025;-73
2023/11/02 01:21:26;;;;;;;;;;;;;;;;;;5051661;28;19964;-75
2023/11/02 01:23:54;;;;;;;;;;;;;;;;;;5047861;28;19925;-75
2023/11/02 01:26:22;;;;;;;;;;;;;;;;;;5050828;28;19925;-75
2023/11/02 01:28:50;;;;;;;;;;;;;;;;;;5052676;28;19956;-75
2023/11/02 01:31:17;;;;;;;;;;;;;;;;;;5051409;28;19929;-75
2023/11/02 01:33:45;;;;;;;;;;;;;;;;;;5052700;28;19924;-74
2023/11/02 01:36:12;;;;;;;;;;;;;;;;;;5049057;28;19925;-75
2023/11/02 01:38:41;;;;;;;;;;;;;;;;;;5052314;28;19924;-74
2023/11/02 01:41:08;;;;;;;;;;;;;;;;;;5052353;28;19948;-75
2023/11/02 01:43:35;;;;;;;;;;;;;;;;;;5052388;28;20279;-74
2023/11/02 01:46:02;;;;;;;;;;;;;;;;;;5049306;28;19983;-74
2023/11/02 01:48:29;;;;;;;;;;;;;;;;;;5051294;28;20016;-74
2023/11/02 01:50:56;;;;;;;;;;;;;;;;;;5052021;28;19967;-74
2023/11/02 01:53:23;;;;;;;;;;;;;;;;;;5052303;28;19995;-74
2023/11/02 01:55:50;;;;;;;;;;;;;;;;;;5051004;28;20019;-75
2023/11/02 01:58:17;;;;;;;;;;;;;;;;;;5050276;28;20643;-74
2023/11/02 02:00:44;;;;;;;;;;;;;;;;;;5047278;28;19933;-74
2023/11/02 02:03:12;;;;;;;;;;;;;;;;;;5053485;28;19924;-75
2023/11/02 02:05:39;;;;;;;;;;;;;;;;;;5047941;28;20035;-74
2023/11/02 02:08:06;;;;;;;;;;;;;;;;;;5052179;28;19925;-74
2023/11/02 02:10:32;;;;;;;;;;;;;;;;;;5051734;28;20027;-74
2023/11/02 02:12:59;;;;;;;;;;;;;;;;;;5051694;28;19931;-74
2023/11/02 02:15:27;;;;;;;;;;;;;;;;;;5051272;28;19964;-75
2023/11/02 02:17:54;;;;;;;;;;;;;;;;;;5050776;28;20024;-74
2023/11/02 02:20:21;;;;;;;;;;;;;;;;;;5050439;28;19924;-74
2023/11/02 02:22:48;;;;;;;;;;;;;;;;;;5044799;28;20366;-73
2023/11/02 02:25:16;;;;;;;;;;;;;;;;;;5046812;28;19975;-73
2023/11/02 02:27:43;;;;;;;;;;;;;;;;;;5050184;28;19968;-74
2023/11/02 02:30:11;;;;;;;;;;;;;;;;;;5050367;28;19991;-74
2023/11/02 02:32:38;;;;;;;;;;;;;;;;;;5050811;28;19925;-74
2023/11/02 02:35:05;;;;;;;;;;;;;;;;;;5051518;28;20019;-75
2023/11/02 02:37:32;;;;;;;;;;;;;;;;;;5048660;28;19993;-75
2023/11/02 02:39:59;;;;;;;;;;;;;;;;;;5051890;28;19979;-75
2023/11/02 02:42:26;;;;;;;;;;;;;;;;;;5052133;28;19971;-75
2023/11/02 02:44:53;;;;;;;;;;;;;;;;;;5050590;28;20387;-74
2023/11/02 02:47:20;;;;;;;;;;;;;;;;;;5049849;28;20017;-75
2023/11/02 02:49:49;;;;;;;;;;;;;;;;;;5043789;28;19971;-75
2023/11/02 02:52:17;;;;;;;;;;;;;;;;;;5051462;28;19931;-74
2023/11/02 02:54:44;;;;;;;;;;;;;;;;;;5051292;28;20339;-74
2023/11/02 02:57:12;;;;;;;;;;;;;;;;;;5046225;28;20015;-75
2023/11/02 02:59:39;;;;;;;;;;;;;;;;;;5051570;28;19924;-75
2023/11/02 03:02:06;;;;;;;;;;;;;;;;;;5050409;28;19925;-75
2023/11/02 03:04:33;;;;;;;;;;;;;;;;;;5051611;28;19925;-74
2023/11/02 03:07:00;;;;;;;;;;;;;;;;;;5049695;28;19929;-73
2023/11/02 03:09:27;;;;;;;;;;;;;;;;;;5052567;28;20443;-74
2023/11/02 03:11:54;;;;;;;;;;;;;;;;;;5055292;28;20032;-74
2023/11/02 03:14:21;;;;;;;;;;;;;;;;;;5053360;28;19933;-75
2023/11/02 03:16:48;;;;;;;;;;;;;;;;;;5052373;28;19924;-74
2023/11/02 03:19:15;;;;;;;;;;;;;;;;;;5050566;28;19971;-75
2023/11/02 03:21:42;;;;;;;;;;;;;;;;;;5053838;28;20015;-75
2023/11/02 03:24:09;;;;;;;;;;;;;;;;;;5055154;28;19975;-74
2023/11/02 03:26:36;;;;;;;;;;;;;;;;;;5054764;28;19925;-75
2023/11/02 03:29:04;;;;;;;;;;;;;;;;;;5054241;28;20287;-75
2023/11/02 03:31:31;;;;;;;;;;;;;;;;;;5042030;28;19929;-75
2023/11/02 03:33:58;;;;;;;;;;;;;;;;;;5049172;28;19925;-75
2023/11/02 03:36:27;;;;;;;;;;;;;;;;;;5055078;28;19928;-75
2023/11/02 03:38:54;;;;;;;;;;;;;;;;;;5052428;28;20007;-75
2023/11/02 03:41:21;;;;;;;;;;;;;;;;;;5054341;28;20339;-75
2023/11/02 03:43:47;;;;;;;;;;;;;;;;;;5053963;28;19971;-75
2023/11/02 03:46:15;;;;;;;;;;;;;;;;;;5052252;28;19924;-74
2023/11/02 03:48:42;;;;;;;;;;;;;;;;;;5052990;28;20007;-75
2023/11/02 03:51:09;;;;;;;;;;;;;;;;;;5055101;28;19979;-75
2023/11/02 03:53:36;;;;;;;;;;;;;;;;;;5053650;28;20387;-74
2023/11/02 03:56:05;;;;;;;;;;;;;;;;;;5052963;28;20058;-75
2023/11/02 03:58:32;;;;;;;;;;;;;;;;;;5053891;28;19929;-74
2023/11/02 04:00:59;;;;;;;;;;;;;;;;;;5054036;28;20403;-75
2023/11/02 04:03:25;;;;;;;;;;;;;;;;;;5053667;28;19932;-74
2023/11/02 04:05:52;;;;;;;;;;;;;;;;;;5047144;28;19958;-75
2023/11/02 04:08:19;;;;;;;;;;;;;;;;;;5051067;28;20383;-75
2023/11/02 04:10:46;;;;;;;;;;;;;;;;;;5043477;28;20010;-77
2023/11/02 04:13:16;;;;;;;;;;;;;;;;;;5055457;28;19947;-77
2023/11/02 04:15:42;;;;;;;;;;;;;;;;;;5054656;28;20011;-75
2023/11/02 04:18:09;;;;;;;;;;;;;;;;;;5050748;28;20016;-75
2023/11/02 04:20:37;;;;;;;;;;;;;;;;;;5051564;28;19932;-75
2023/11/02 04:23:06;;;;;;;;;;;;;;;;;;5051809;28;20071;-75
2023/11/02 04:25:33;;;;;;;;;;;;;;;;;;5055339;28;19931;-76
2023/11/02 04:28:00;;;;;;;;;;;;;;;;;;5055945;28;20443;-75
2023/11/02 04:30:27;;;;;;;;;;;;;;;;;;5049563;28;19925;-76
2023/11/02 04:32:55;;;;;;;;;;;;;;;;;;5034861;28;20367;-76
2023/11/02 04:35:22;;;;;;;;;;;;;;;;;;5050154;28;19959;-76
2023/11/02 04:37:49;;;;;;;;;;;;;;;;;;5055012;28;19935;-76
2023/11/02 04:40:16;;;;;;;;;;;;;;;;;;5043476;28;19924;-76
2023/11/02 04:42:43;;;;;;;;;;;;;;;;;;5048018;28;19925;-75
2023/11/02 04:45:10;;;;;;;;;;;;;;;;;;5053602;28;20383;-75
2023/11/02 04:47:37;;;;;;;;;;;;;;;;;;5053280;28;19929;-75
2023/11/02 04:50:05;;;;;;;;;;;;;;;;;;5053133;28;19929;-74
2023/11/02 04:52:32;;;;;;;;;;;;;;;;;;5054014;28;19925;-75
2023/11/02 04:54:59;;;;;;;;;;;;;;;;;;5053015;28;20439;-74
2023/11/02 04:57:26;;;;;;;;;;;;;;;;;;5034352;28;19931;-74
2023/11/02 04:59:53;;;;;;;;;;;;;;;;;;5050240;28;20022;-74
2023/11/02 05:02:22;;;;;;;;;;;;;;;;;;5051191;28;20344;-74
2023/11/02 05:04:50;;;;;;;;;;;;;;;;;;5052098;28;19925;-74
2023/11/02 05:07:17;;;;;;;;;;;;;;;;;;5053357;28;19924;-75
2023/11/02 05:09:44;;;;;;;;;;;;;;;;;;5052385;28;20024;-76
2023/11/02 05:12:11;;;;;;;;;;;;;;;;;;5050801;28;20387;-75
2023/11/02 05:14:38;;;;;;;;;;;;;;;;;;5048704;28;19925;-76
2023/11/02 05:17:05;;;;;;;;;;;;;;;;;;5050374;28;19925;-75
2023/11/02 05:19:32;;;;;;;;;;;;;;;;;;5053799;28;19943;-76
2023/11/02 05:21:59;;;;;;;;;;;;;;;;;;5052760;28;19987;-76
2023/11/02 05:24:26;;;;;;;;;;;;;;;;;;5052108;28;20461;-77
2023/11/02 05:26:54;;;;;;;;;;;;;;;;;;5051475;28;19928;-76
2023/11/02 05:29:21;;;;;;;;;;;;;;;;;;5049322;28;19925;-75
2023/11/02 05:31:48;;;;;;;;;;;;;;;;;;5046373;28;19932;-76
2023/11/02 05:34:15;;;;;;;;;;;;;;;;;;5052663;28;20358;-73
2023/11/02 05:36:42;;;;;;;;;;;;;;;;;;5052414;28;19978;-75
2023/11/02 05:39:09;;;;;;;;;;;;;;;;;;5053179;28;19976;-76
2023/11/02 05:41:36;;;;;;;;;;;;;;;;;;5051591;28;19982;-75
2023/11/02 05:44:03;;;;;;;;;;;;;;;;;;5051065;28;20403;-76
2023/11/02 05:46:30;;;;;;;;;;;;;;;;;;5048668;28;19925;-74
2023/11/02 05:48:57;;;;;;;;;;;;;;;;;;5032940;28;20020;-75
2023/11/02 05:51:24;;;;;;;;;;;;;;;;;;5049989;28;19931;-74
2023/11/02 05:53:51;;;;;;;;;;;;;;;;;;5052418;28;20573;-74
2023/11/02 05:56:18;;;;;;;;;;;;;;;;;;5051722;28;19967;-74
2023/11/02 05:58:46;;;;;;;;;;;;;;;;;;5052173;28;19940;-74
2023/11/02 06:01:13;;;;;;;;;;;;;;;;;;5049992;28;19978;-74
2023/11/02 06:03:40;;;;;;;;;;;;;;;;;;5049034;28;19970;-74
2023/11/02 06:06:07;;;;;;;;;;;;;;;;;;5052118;28;19924;-75
2023/11/02 06:08:35;;;;;;;;;;;;;;;;;;5050418;28;19971;-75
2023/11/02 06:11:03;;;;;;;;;;;;;;;;;;5051609;28;19928;-76
2023/11/02 06:13:30;;;;;;;;;;;;;;;;;;5051666;28;19925;-75
2023/11/02 06:15:57;;;;;;;;;;;;;;;;;;5048771;28;20008;-76
2023/11/02 06:18:26;;;;;;;;;;;;;;;;;;5039670;28;20011;-75
2023/11/02 06:20:53;;;;;;;;;;;;;;;;;;5045952;28;19925;-76
2023/11/02 06:23:20;;;;;;;;;;;;;;;;;;5049292;28;20027;-74
2023/11/02 06:25:47;;;;;;;;;;;;;;;;;;5045762;28;19974;-74
2023/11/02 06:28:14;;;;;;;;;;;;;;;;;;5049141;28;20019;-74
2023/11/02 06:30:42;;;;;;;;;;;;;;;;;;5049741;28;19925;-76
2023/11/02 06:33:09;;;;;;;;;;;;;;;;;;5049416;28;19925;-75
2023/11/02 06:35:36;;;;;;;;;;;;;;;;;;5048957;28;19968;-76
2023/11/02 06:38:03;;;;;;;;;;;;;;;;;;5050917;28;20008;-75
2023/11/02 06:40:30;;;;;;;;;;;;;;;;;;5052024;28;20020;-75
2023/11/02 06:42:57;;;;;;;;;;;;;;;;;;5050871;28;19963;-75
2023/11/02 06:45:24;;;;;;;;;;;;;;;;;;5050106;28;19925;-75
2023/11/02 06:47:51;;;;;;;;;;;;;;;;;;5055270;28;20027;-74
2023/11/02 06:50:18;;;;;;;;;;;;;;;;;;5055331;28;19929;-74
2023/11/02 06:52:45;;;;;;;;;;;;;;;;;;5054677;28;20023;-75
2023/11/02 06:55:12;;;;;;;;;;;;;;;;;;5054758;28;20413;-75
2023/11/02 06:57:39;;;;;;;;;;;;;;;;;;5054333;28;20178;-74
2023/11/02 07:00:09;;;;;;;;;;;;;;;;;;5043303;28;19960;-75
2023/11/02 07:02:36;;;;;;;;;;;;;;;;;;5057245;28;19924;-75
2023/11/02 07:05:03;;;;;;;;;;;;;;;;;;5052695;28;20307;-75
2023/11/02 07:07:30;;;;;;;;;;;;;;;;;;5054319;28;19960;-75
2023/11/02 07:09:57;;;;;;;;;;;;;;;;;;5047586;28;20487;-74
2023/11/02 07:12:24;;;;;;;;;;;;;;;;;;5048906;28;20264;-75
2023/11/02 07:14:51;;;;;;;;;;;;;;;;;;5047740;28;19931;-74
2023/11/02 07:17:18;;;;;;;;;;;;;;;;;;5052768;28;19996;-75
2023/11/02 07:19:45;;;;;;;;;;;;;;;;;;5053320;28;20011;-75
2023/11/02 07:22:12;;;;;;;;;;;;;;;;;;5055479;28;19929;-76
2023/11/02 07:24:39;;;;;;;;;;;;;;;;;;5054156;28;20405;-76
2023/11/02 07:27:06;;;;;;;;;;;;;;;;;;5050211;28;20271;-75
2023/11/02 07:29:33;;;;;;;;;;;;;;;;;;5052302;28;20447;-75
2023/11/02 07:32:00;;;;;;;;;;;;;;;;;;5049825;28;19925;-75
2023/11/02 07:34:27;;;;;;;;;;;;;;;;;;5045079;28;19932;-76
2023/11/02 07:36:56;;;;;;;;;;;;;;;;;;5047767;28;19925;-75
2023/11/02 07:39:23;;;;;;;;;;;;;;;;;;5047074;28;20017;-75
2023/11/02 07:41:50;;;;;;;;;;;;;;;;;;5050697;28;20015;-75
2023/11/02 07:44:17;;;;;;;;;;;;;;;;;;5046301;28;20011;-74
2023/11/02 07:46:44;;;;;;;;;;;;;;;;;;5053582;28;19925;-75
2023/11/02 07:49:11;;;;;;;;;;;;;;;;;;5053940;28;19968;-74
2023/11/02 07:51:38;;;;;;;;;;;;;;;;;;5053481;28;20354;-73
2023/11/02 07:54:05;;;;;;;;;;;;;;;;;;5053172;28;19924;-74
2023/11/02 07:56:32;;;;;;;;;;;;;;;;;;5051682;28;19928;-74
2023/11/02 07:58:59;;;;;;;;;;;;;;;;;;5050443;28;19931;-76
2023/11/02 08:01:28;;;;;;;;;;;;;;;;;;5041020;28;19925;-74
2023/11/02 08:03:55;;;;;;;;;;;;;;;;;;5048417;28;20402;-72
2023/11/02 08:06:22;;;;;;;;;;;;;;;;;;5046466;28;19972;-72
2023/11/02 08:08:51;;;;;;;;;;;;;;;;;;5050441;28;19994;-75
2023/11/02 08:11:18;;;;;;;;;;;;;;;;;;5046842;28;19932;-72
2023/11/02 08:13:45;;;;;;;;;;;;;;;;;;5051211;28;19991;-73
2023/11/02 08:16:12;;;;;;;;;;;;;;;;;;5041321;28;19937;-73
2023/11/02 08:18:39;;;;;;;;;;;;;;;;;;5046183;28;20040;-73
2023/11/02 08:21:06;;;;;;;;;;;;;;;;;;5049113;28;20216;-72
2023/11/02 08:23:33;;;;;;;;;;;;;;;;;;5051289;28;19943;-72
2023/11/02 08:26:00;;;;;;;;;;;;;;;;;;5053447;28;20367;-72
2023/11/02 08:28:30;;;;;;;;;;;;;;;;;;5049245;28;20010;-72
2023/11/02 08:30:58;;;;;;;;;;;;;;;;;;5032787;28;19932;-72
2023/11/02 08:33:25;;;;;;;;;;;;;;;;;;5038287;28;20028;-73
2023/11/02 08:35:52;;;;;;;;;;;;;;;;;;5036022;28;20304;-74
2023/11/02 08:38:19;;;;;;;;;;;;;;;;;;5038397;28;19928;-74
2023/11/02 08:40:46;;;;;;;;;;;;;;;;;;5053446;28;19968;-74
2023/11/02 08:43:13;;;;;;;;;;;;;;;;;;5043372;28;19932;-73
2023/11/02 08:45:40;;;;;;;;;;;;;;;;;;5044797;28;20077;-74
2023/11/02 08:48:08;;;;;;;;;;;;;;;;;;5050033;28;20342;-74
2023/11/02 08:50:35;;;;;;;;;;;;;;;;;;5037888;28;19964;-75
2023/11/02 08:53:02;;;;;;;;;;;;;;;;;;5037643;28;19925;-72
2023/11/02 08:55:29;;;;;;;;;;;;;;;;;;5044852;28;19964;-74
2023/11/02 08:57:56;;;;;;;;;;;;;;;;;;5038677;28;20094;-72
2023/11/02 09:00:24;;;;;;;;;;;;;;;;;;5044017;28;19928;-73
2023/11/02 09:02:51;;;;;;;;;;;;;;;;;;5040367;28;19971;-73
2023/11/02 09:05:18;;;;;;;;;;;;;;;;;;5038797;28;20028;-73
2023/11/02 09:07:46;;;;;;;;;;;;;;;;;;5036667;28;20024;-72
2023/11/02 09:10:16;;;;;;;;;;;;;;;;;;5046919;28;19929;-74
2023/11/02 09:12:43;;;;;;;;;;;;;;;;;;5048177;28;20380;-72
2023/11/02 09:15:11;;;;;;;;;;;;;;;;;;5052059;28;19994;-72
2023/11/02 09:17:38;;;;;;;;;;;;;;;;;;5042133;28;20354;-67
2023/11/02 09:20:08;;;;;;;;;;;;;;;;;;5041781;28;19932;-73
2023/11/02 09:22:36;;;;;;;;;;;;;;;;;;5041521;28;19984;-73
2023/11/02 09:25:04;;;;;;;;;;;;;;;;;;5039294;28;20306;-73
2023/11/02 09:27:31;;;;;;;;;;;;;;;;;;5044121;28;19925;-72
2023/11/02 09:29:58;;;;;;;;;;;;;;;;;;5044831;28;20301;-73
2023/11/02 09:32:25;;;;;;;;;;;;;;;;;;5045825;28;20019;-72
2023/11/02 09:34:52;;;;;;;;;;;;;;;;;;5031655;28;20387;-72
2023/11/02 09:37:19;;;;;;;;;;;;;;;;;;5048174;28;20607;-73
2023/11/02 09:39:46;;;;;;;;;;;;;;;;;;5045086;28;19967;-72
2023/11/02 09:42:13;;;;;;;;;;;;;;;;;;5044304;28;20011;-71
2023/11/02 09:44:41;;;;;;;;;;;;;;;;;;5043336;28;20033;-73
2023/11/02 09:47:08;;;;;;;;;;;;;;;;;;5053936;28;19935;-73
2023/11/02 09:49:36;;;;;;;;;;;;;;;;;;5062951;28;20011;-72
2023/11/02 09:52:03;;;;;;;;;;;;;;;;;;5046012;28;19928;-74
2023/11/02 09:54:30;;;;;;;;;;;;;;;;;;5051818;28;19924;-74
2023/11/02 09:56:57;;;;;;;;;;;;;;;;;;5046236;28;19929;-75
2023/11/02 09:59:24;;;;;;;;;;;;;;;;;;5046518;28;19924;-74
2023/11/02 10:01:54;;;;;;;;;;;;;;;;;;5055270;28;20023;-72
2023/11/02 10:04:21;;;;;;;;;;;;;;;;;;5048299;28;20043;-72
2023/11/02 10:06:48;;;;;;;;;;;;;;;;;;5049539;28;20056;-73
2023/11/02 10:09:17;;;;;;;;;;;;;;;;;;5042328;28;19932;-72
2023/11/02 10:11:44;;;;;;;;;;;;;;;;;;5052267;28;19963;-71
2023/11/02 10:14:11;;;;;;;;;;;;;;;;;;5051719;28;19928;-71
2023/11/02 10:16:38;;;;;;;;;;;;;;;;;;5039473;28;20420;-71
2023/11/02 10:19:10;;;;;;;;;;;;;;;;;;5046747;28;19947;-73
2023/11/02 10:21:37;;;;;;;;;;;;;;;;;;5044810;28;19952;-72
2023/11/02 10:24:05;;;;;;;;;;;;;;;;;;5042576;28;19925;-71
2023/11/02 10:26:34;;;;;;;;;;;;;;;;;;5048865;28;19925;-71
2023/11/02 10:29:02;;;;;;;;;;;;;;;;;;5040112;28;19925;-71
2023/11/02 10:31:30;;;;;;;;;;;;;;;;;;5048183;28;20772;-71
2023/11/02 10:33:58;;;;;;;;;;;;;;;;;;5050899;28;20307;-70
2023/11/02 10:36:25;;;;;;;;;;;;;;;;;;5050053;28;20004;-72
2023/11/02 10:38:52;;;;;;;;;;;;;;;;;;5064723;28;19924;-71
2023/11/02 10:41:19;;;;;;;;;;;;;;;;;;5058505;28;20371;-71
2023/11/02 10:43:46;;;;;;;;;;;;;;;;;;5051297;28;20261;-71
2023/11/02 10:46:15;;;;;;;;;;;;;;;;;;5064042;28;20009;-71
2023/11/02 10:48:43;;;;;;;;;;;;;;;;;;5049830;28;19928;-71
2023/11/02 10:51:10;;;;;;;;;;;;;;;;;;5049717;28;20473;-71
2023/11/02 10:53:37;;;;;;;;;;;;;;;;;;5043807;28;19932;-72
2023/11/02 10:56:04;;;;;;;;;;;;;;;;;;5040550;28;20008;-72
2023/11/02 10:58:31;;;;;;;;;;;;;;;;;;5047591;28;19979;-69
2023/11/02 11:00:58;;;;;;;;;;;;;;;;;;5045870;28;20004;-71
2023/11/02 11:03:25;;;;;;;;;;;;;;;;;;5050618;28;19982;-72
2023/11/02 11:05:52;;;;;;;;;;;;;;;;;;5047360;28;19929;-72
2023/11/02 11:08:19;;;;;;;;;;;;;;;;;;5045648;28;19976;-72
2023/11/02 11:10:47;;;;;;;;;;;;;;;;;;5044706;28;19947;-72
2023/11/02 11:13:14;;;;;;;;;;;;;;;;;;5047947;28;19925;-71
2023/11/02 11:15:41;;;;;;;;;;;;;;;;;;5047793;28;19933;-73
2023/11/02 11:18:09;;;;;;;;;;;;;;;;;;5047226;28;19970;-71
2023/11/02 11:20:38;;;;;;;;;;;;;;;;;;5045386;28;20330;-72
2023/11/02 11:23:05;;;;;;;;;;;;;;;;;;5050260;28;19931;-71
2023/11/02 11:25:32;;;;;;;;;;;;;;;;;;5050998;28;19931;-72
2023/11/02 11:27:59;;;;;;;;;;;;;;;;;;5052227;28;19942;-71
2023/11/02 11:30:27;;;;;;;;;;;;;;;;;;5051801;28;19925;-71
2023/11/02 11:32:54;;;;;;;;;;;;;;;;;;5055723;28;19983;-72
2023/11/02 11:35:23;;;;;;;;;;;;;;;;;;5051953;28;19924;-72
2023/11/02 11:37:56;;;;;;;;;;;;;;;;;;5055805;28;19975;-72
2023/11/02 11:40:23;;;;;;;;;;;;;;;;;;5053300;28;19928;-72
2023/11/02 11:42:50;;;;;;;;;;;;;;;;;;5046955;28;20410;-72
2023/11/02 11:45:18;;;;;;;;;;;;;;;;;;5034982;28;20028;-72
2023/11/02 11:47:45;;;;;;;;;;;;;;;;;;5045706;28;19980;-71
2023/11/02 11:50:12;;;;;;;;;;;;;;;;;;5053569;28;19979;-71
2023/11/02 11:52:39;;;;;;;;;;;;;;;;;;5055712;28;20335;-71
2023/11/02 11:55:06;;;;;;;;;;;;;;;;;;5053565;28;19963;-72
2023/11/02 11:57:34;;;;;;;;;;;;;;;;;;5049914;28;19939;-70
2023/11/02 12:00:04;;;;;;;;;;;;;;;;;;5052982;28;19994;-72
2023/11/02 12:02:31;;;;;;;;;;;;;;;;;;5051373;28;20055;-71
2023/11/02 12:04:58;;;;;;;;;;;;;;;;;;5044793;28;20306;-72
2023/11/02 12:07:25;;;;;;;;;;;;;;;;;;5043468;28;19925;-72
2023/11/02 12:09:52;;;;;;;;;;;;;;;;;;5041930;28;19968;-71
2023/11/02 12:12:19;;;;;;;;;;;;;;;;;;5048022;28;19931;-73
2023/11/02 12:14:47;;;;;;;;;;;;;;;;;;5049116;28;19932;-70
2023/11/02 12:17:13;;;;;;;;;;;;;;;;;;5051382;28;20383;-71
2023/11/02 12:19:41;;;;;;;;;;;;;;;;;;5049252;28;20454;-71
2023/11/02 12:22:08;;;;;;;;;;;;;;;;;;5043672;28;20008;-70
2023/11/02 12:24:38;;;;;;;;;;;;;;;;;;5039941;28;20300;-71
2023/11/02 12:27:05;;;;;;;;;;;;;;;;;;5048405;28;19936;-71
2023/11/02 12:29:32;;;;;;;;;;;;;;;;;;5049759;28;19968;-72
2023/11/02 12:31:59;;;;;;;;;;;;;;;;;;5045690;28;20011;-72
2023/11/02 12:34:26;;;;;;;;;;;;;;;;;;5046286;28;19976;-72
2023/11/02 12:36:53;;;;;;;;;;;;;;;;;;5041077;28;20012;-72
2023/11/02 12:39:21;;;;;;;;;;;;;;;;;;5038633;28;19936;-72
2023/11/02 12:41:48;;;;;;;;;;;;;;;;;;5051255;28;19932;-73
2023/11/02 12:44:16;;;;;;;;;;;;;;;;;;5050541;28;20396;-72
2023/11/02 12:46:43;;;;;;;;;;;;;;;;;;5049898;28;19968;-72
2023/11/02 12:49:11;;;;;;;;;;;;;;;;;;5047476;28;20216;-72
2023/11/02 12:51:38;;;;;;;;;;;;;;;;;;5048679;28;20012;-72
2023/11/02 12:54:08;;;;;;;;;;;;;;;;;;5051814;28;19937;-72
2023/11/02 12:56:35;;;;;;;;;;;;;;;;;;5052183;28;20466;-72
2023/11/02 12:59:03;;;;;;;;;;;;;;;;;;5047796;28;20007;-72
2023/11/02 13:01:30;;;;;;;;;;;;;;;;;;5039934;28;20319;-70
2023/11/02 13:03:58;;;;;;;;;;;;;;;;;;5045875;28;20018;-73
2023/11/02 13:06:25;;;;;;;;;;;;;;;;;;5043369;28;19972;-70
2023/11/02 13:08:52;;;;;;;;;;;;;;;;;;5045798;28;19978;-69
2023/11/02 13:11:19;;;;;;;;;;;;;;;;;;5047370;28;20003;-70
2023/11/02 13:13:46;;;;;;;;;;;;;;;;;;5048683;28;19925;-70
2023/11/02 13:16:14;;;;;;;;;;;;;;;;;;5050969;28;19933;-71
2023/11/02 13:18:41;;;;;;;;;;;;;;;;;;5052154;28;19974;-71
2023/11/02 13:21:08;;;;;;;;;;;;;;;;;;5047128;28;19931;-69
2023/11/02 13:23:35;;;;;;;;;;;;;;;;;;5040600;28;19988;-69
2023/11/02 13:26:02;;;;;;;;;;;;;;;;;;5046172;28;20050;-69
2023/11/02 13:28:29;;;;;;;;;;;;;;;;;;5052133;28;20023;-68
2023/11/02 13:30:56;;;;;;;;;;;;;;;;;;5050760;28;20379;-68
2023/11/02 13:33:26;;;;;;;;;;;;;;;;;;5048325;28;19929;-69
2023/11/02 13:35:53;;;;;;;;;;;;;;;;;;5053899;28;19925;-68
2023/11/02 13:38:21;;;;;;;;;;;;;;;;;;5042416;28;20571;-68
2023/11/02 13:40:48;;;;;;;;;;;;;;;;;;5038636;28;19932;-68
2023/11/02 13:43:17;;;;;;;;;;;;;;;;;;5053647;28;20486;-68
2023/11/02 13:45:44;;;;;;;;;;;;;;;;;;5037075;28;19925;-68
2023/11/02 13:48:12;;;;;;;;;;;;;;;;;;5050452;28;19925;-67
2023/11/02 13:50:39;;;;;;;;;;;;;;;;;;5047086;28;19928;-66
2023/11/02 13:53:07;;;;;;;;;;;;;;;;;;5047459;28;20019;-67
2023/11/02 13:55:34;;;;;;;;;;;;;;;;;;5050635;28;19933;-67
2023/11/02 13:58:02;;;;;;;;;;;;;;;;;;5045649;28;19992;-69
2023/11/02 14:00:29;;;;;;;;;;;;;;;;;;5045077;28;20015;-69
2023/11/02 14:02:56;;;;;;;;;;;;;;;;;;5049815;28;19928;-68
2023/11/02 14:05:23;;;;;;;;;;;;;;;;;;5060559;28;19924;-69
2023/11/02 14:07:50;;;;;;;;;;;;;;;;;;5037498;28;20359;-69
2023/11/02 14:10:17;;;;;;;;;;;;;;;;;;5049391;28;19929;-68
2023/11/02 14:12:44;;;;;;;;;;;;;;;;;;5055614;28;19925;-68
2023/11/02 14:15:11;;;;;;;;;;;;;;;;;;5051601;28;19935;-68
2023/11/02 14:17:38;;;;;;;;;;;;;;;;;;5052121;28;19978;-68
2023/11/02 14:20:06;;;;;;;;;;;;;;;;;;5049220;28;20284;-68
2023/11/02 14:22:33;;;;;;;;;;;;;;;;;;5053122;28;19924;-68
2023/11/02 14:25:00;;;;;;;;;;;;;;;;;;5052110;28;19925;-68
2023/11/02 14:27:28;;;;;;;;;;;;;;;;;;5050994;28;19950;-68
2023/11/02 14:29:55;;;;;;;;;;;;;;;;;;5040356;28;19933;-69
2023/11/02 14:32:23;;;;;;;;;;;;;;;;;;5064431;28;19925;-68
2023/11/02 14:34:50;;;;;;;;;;;;;;;;;;5039940;28;20020;-70
2023/11/02 14:37:17;;;;;;;;;;;;;;;;;;5052469;28;20417;-71
2023/11/02 14:39:44;;;;;;;;;;;;;;;;;;5046786;28;20007;-72
2023/11/02 14:42:11;;;;;;;;;;;;;;;;;;5045536;28;20532;-70
2023/11/02 14:44:38;;;;;;;;;;;;;;;;;;5048129;28;19925;-70
2023/11/02 14:47:05;;;;;;;;;;;;;;;;;;5036637;28;20025;-69
2023/11/02 14:49:32;;;;;;;;;;;;;;;;;;5033165;28;20557;-72
2023/11/02 14:52:06;;;;;;;;;;;;;;;;;;5042201;28;20015;-72
2023/11/02 14:54:33;;;;;;;;;;;;;;;;;;5042550;28;19925;-71
2023/11/02 14:57:01;;;;;;;;;;;;;;;;;;5035059;28;19925;-71
2023/11/02 14:59:27;;;;;;;;;;;;;;;;;;5046814;28;19925;-72
2023/11/02 15:01:55;;;;;;;;;;;;;;;;;;5036588;28;19925;-71
2023/11/02 15:04:23;;;;;;;;;;;;;;;;;;5041600;28;20167;-72
2023/11/02 15:06:50;;;;;;;;;;;;;;;;;;5049008;28;19931;-71
2023/11/02 15:09:17;;;;;;;;;;;;;;;;;;5052781;28;19972;-70
2023/11/02 15:11:44;;;;;;;;;;;;;;;;;;5047824;28;20008;-71
2023/11/02 15:14:11;;;;;;;;;;;;;;;;;;5042138;28;19933;-71
2023/11/02 15:16:38;;;;;;;;;;;;;;;;;;5048443;28;19960;-71
2023/11/02 15:19:08;;;;;;;;;;;;;;;;;;5041028;28;19948;-71
2023/11/02 15:21:37;;;;;;;;;;;;;;;;;;5050908;28;19925;-72
2023/11/02 15:24:05;;;;;;;;;;;;;;;;;;5039726;28;20012;-71
2023/11/02 15:26:32;;;;;;;;;;;;;;;;;;5047073;28;20398;-73
2023/11/02 15:29:01;;;;;;;;;;;;;;;;;;5052534;28;20402;-71
2023/11/02 15:31:31;;;;;;;;;;;;;;;;;;5049452;28;19925;-71
2023/11/02 15:33:58;;;;;;;;;;;;;;;;;;5051681;28;19932;-70
2023/11/02 15:36:25;;;;;;;;;;;;;;;;;;5054489;28;19925;-72
2023/11/02 15:38:52;;;;;;;;;;;;;;;;;;5048765;28;19956;-69
2023/11/02 15:41:19;;;;;;;;;;;;;;;;;;5049359;28;19932;-70
2023/11/02 15:43:47;;;;;;;;;;;;;;;;;;5047342;28;19939;-71
2023/11/02 15:46:14;;;;;;;;;;;;;;;;;;5050084;28;20003;-70
2023/11/02 15:48:41;;;;;;;;;;;;;;;;;;5045861;28;20015;-71
2023/11/02 15:51:08;;;;;;;;;;;;;;;;;;5044324;28;20008;-69
2023/11/02 15:53:36;;;;;;;;;;;;;;;;;;5050508;28;20016;-73
2023/11/02 15:56:03;;;;;;;;;;;;;;;;;;5039765;28;19932;-70
2023/11/02 15:58:30;;;;;;;;;;;;;;;;;;5048890;28;19924;-71
2023/11/02 16:00:57;;;;;;;;;;;;;;;;;;5040740;28;20443;-70
2023/11/02 16:03:24;;;;;;;;;;;;;;;;;;5044419;28;19924;-71
2023/11/02 16:05:51;;;;;;;;;;;;;;;;;;5048097;28;20376;-70
2023/11/02 16:08:20;;;;;;;;;;;;;;;;;;5040582;28;20206;-74
2023/11/02 16:10:47;;;;;;;;;;;;;;;;;;5042107;28;19986;-73
2023/11/02 16:13:15;;;;;;;;;;;;;;;;;;5042331;28;19951;-73
2023/11/02 16:15:41;;;;;;;;;;;;;;;;;;5050883;28;19935;-73
2023/11/02 16:18:11;;;;;;;;;;;;;;;;;;5047289;28;19925;-74
2023/11/02 16:20:39;;;;;;;;;;;;;;;;;;5043052;28;19925;-73
2023/11/02 16:23:06;;;;;;;;;;;;;;;;;;5040573;28;19939;-73
2023/11/02 16:25:33;;;;;;;;;;;;;;;;;;5052350;28;20390;-73
2023/11/02 16:28:00;;;;;;;;;;;;;;;;;;5055305;28;19986;-73
2023/11/02 16:30:28;;;;;;;;;;;;;;;;;;5057086;28;20015;-74
2023/11/02 16:32:55;;;;;;;;;;;;;;;;;;5047186;28;20299;-73
2023/11/02 16:35:23;;;;;;;;;;;;;;;;;;5048059;28;20265;-73
2023/11/02 16:37:52;;;;;;;;;;;;;;;;;;5058019;28;20477;-73
2023/11/02 16:40:19;;;;;;;;;;;;;;;;;;5061242;28;20004;-73
2023/11/02 16:42:46;;;;;;;;;;;;;;;;;;5050913;28;19929;-73
2023/11/02 16:45:13;;;;;;;;;;;;;;;;;;5053687;28;19928;-73